Time;durP1;ratioP1;P1;durP2;ratioP2;P2;SDS_P1;SDS_P2;PMS_P1;PMS_P2;Temp;Humidity;BMP_temperature;BMP_pressure;BME280_temperature;BME280_humidity;BME280_pressure;Samples;Min_cycle;Max_cycle;Signal;HPM_P1;HPM_P2
2023/01/29 00:01:40;;;;;;;31.08;23.92;;;3.50;99.90;;;;;;5051848;28;20041;-70
2023/01/29 00:04:06;;;;;;;32.65;24.80;;;3.50;99.90;;;;;;5050872;28;20049;-70
2023/01/29 00:06:31;;;;;;;31.10;24.20;;;3.40;99.90;;;;;;5051186;28;20061;-70
2023/01/29 00:08:57;;;;;;;28.92;23.38;;;3.40;99.90;;;;;;5051031;28;20041;-70
2023/01/29 00:11:24;;;;;;;27.98;22.45;;;3.40;99.90;;;;;;5048876;28;21790;-70
2023/01/29 00:13:50;;;;;;;31.60;23.85;;;3.40;99.90;;;;;;5048042;28;20049;-70
2023/01/29 00:16:16;;;;;;;29.27;23.40;;;3.40;99.90;;;;;;5049099;28;20041;-70
2023/01/29 00:18:42;;;;;;;32.83;24.42;;;3.50;99.90;;;;;;5049369;28;20048;-70
2023/01/29 00:21:09;;;;;;;30.52;23.65;;;3.40;99.90;;;;;;5043271;28;20129;-70
2023/01/29 00:23:35;;;;;;;30.83;23.83;;;3.50;99.90;;;;;;5032312;28;20056;-70
2023/01/29 00:26:00;;;;;;;31.55;23.88;;;3.50;99.90;;;;;;5048382;28;20044;-70
2023/01/29 00:28:26;;;;;;;30.58;23.45;;;3.40;99.90;;;;;;5048121;28;20052;-70
2023/01/29 00:30:51;;;;;;;31.02;23.55;;;3.50;99.90;;;;;;5051909;28;20132;-70
2023/01/29 00:33:17;;;;;;;31.77;23.60;;;3.50;99.90;;;;;;5049690;28;20101;-70
2023/01/29 00:35:43;;;;;;;33.55;24.25;;;3.50;99.90;;;;;;5050038;28;20044;-71
2023/01/29 00:38:09;;;;;;;31.70;22.55;;;3.50;99.90;;;;;;5045688;28;20060;-70
2023/01/29 00:44:56;;;;;;;32.78;24.50;;;3.50;99.90;;;;;;5045056;28;20127;-70
2023/01/29 00:46:07;;;;;;;30.13;24.05;;;3.50;99.90;;;;;;5045452;28;20045;-70
2023/01/29 00:48:33;;;;;;;31.42;23.52;;;3.40;99.90;;;;;;5048508;28;20109;-71
2023/01/29 00:51:00;;;;;;;28.98;22.65;;;3.40;99.90;;;;;;5048279;28;20037;-70
2023/01/29 00:53:26;;;;;;;31.48;22.58;;;3.40;99.90;;;;;;5047443;28;20040;-71
2023/01/29 00:55:51;;;;;;;31.92;23.08;;;3.40;99.90;;;;;;5045427;28;20060;-71
2023/01/29 00:58:21;;;;;;;29.38;23.35;;;3.40;99.90;;;;;;5048379;28;20040;-71
2023/01/29 01:00:50;;;;;;;28.75;23.20;;;3.40;99.90;;;;;;5045946;28;20053;-70
2023/01/29 01:03:16;;;;;;;30.02;23.60;;;3.40;99.90;;;;;;5031553;28;20187;-71
2023/01/29 01:05:42;;;;;;;28.70;21.98;;;3.40;99.90;;;;;;5049440;28;20076;-71
2023/01/29 01:11:04;;;;;;;28.52;21.70;;;3.40;99.90;;;;;;5047178;28;20041;-70
2023/01/29 01:13:32;;;;;;;28.57;22.80;;;3.40;99.90;;;;;;5047797;28;20095;-70
2023/01/29 01:15:58;;;;;;;28.80;21.55;;;3.40;99.90;;;;;;5048854;28;20032;-70
2023/01/29 01:18:23;;;;;;;30.77;23.17;;;3.40;99.90;;;;;;5045360;28;20399;-70
2023/01/29 01:20:50;;;;;;;29.73;21.70;;;3.40;99.90;;;;;;5047708;28;20210;-70
2023/01/29 01:23:18;;;;;;;32.57;23.97;;;3.40;99.90;;;;;;5043939;28;20440;-71
2023/01/29 01:25:43;;;;;;;29.25;22.13;;;3.40;99.90;;;;;;5043311;28;20118;-70
2023/01/29 01:28:09;;;;;;;30.10;22.83;;;3.40;99.90;;;;;;5037309;28;20473;-70
2023/01/29 01:30:35;;;;;;;28.42;21.20;;;3.40;99.90;;;;;;5043010;28;20090;-70
2023/01/29 01:33:01;;;;;;;28.08;21.25;;;3.40;99.90;;;;;;5046292;28;20045;-71
2023/01/29 01:35:27;;;;;;;30.27;21.48;;;3.40;99.90;;;;;;5042491;28;20068;-70
2023/01/29 01:37:53;;;;;;;31.77;22.38;;;3.40;99.90;;;;;;5044263;28;20098;-70
2023/01/29 01:40:23;;;;;;;29.70;21.92;;;3.40;99.90;;;;;;5035701;28;20929;-70
2023/01/29 01:42:52;;;;;;;29.70;23.13;;;3.40;99.90;;;;;;5039319;28;20045;-70
2023/01/29 01:45:34;;;;;;;28.98;21.00;;;3.50;99.90;;;;;;5048026;28;20040;-70
2023/01/29 01:48:11;;;;;;;28.75;21.42;;;3.40;99.90;;;;;;5031324;28;20454;-70
2023/01/29 01:51:02;;;;;;;29.00;22.30;;;3.40;99.90;;;;;;5038728;28;20045;-71
2023/01/29 01:53:53;;;;;;;27.92;21.67;;;3.40;99.90;;;;;;5039194;28;20051;-70
2023/01/29 01:56:25;;;;;;;27.17;21.13;;;3.40;99.90;;;;;;5048756;28;20045;-70
2023/01/29 01:58:55;;;;;;;28.83;21.80;;;3.40;99.90;;;;;;5045685;28;20041;-70
2023/01/29 02:01:26;;;;;;;27.52;20.70;;;3.40;99.90;;;;;;5048489;28;20325;-71
2023/01/29 02:10:08;;;;;;;28.48;22.13;;;3.50;99.90;;;;;;5051640;28;20053;-70
2023/01/29 02:12:36;;;;;;;28.20;21.55;;;3.50;99.90;;;;;;5051067;28;20048;-70
2023/01/29 02:15:02;;;;;;;28.98;21.35;;;3.50;99.90;;;;;;5048617;28;20057;-70
2023/01/29 02:17:28;;;;;;;30.73;22.23;;;3.50;99.90;;;;;;5050234;28;20120;-70
2023/01/29 02:20:17;;;;;;;29.30;22.50;;;3.50;99.90;;;;;;5038232;28;20215;-70
2023/01/29 02:23:01;;;;;;;29.38;22.13;;;3.50;99.90;;;;;;5048436;28;20047;-71
2023/01/29 02:25:54;;;;;;;30.15;22.23;;;3.50;99.90;;;;;;5041618;28;20045;-71
2023/01/29 02:28:56;;;;;;;29.15;21.80;;;3.40;99.90;;;;;;5045911;28;20435;-70
2023/01/29 02:31:33;;;;;;;30.48;22.25;;;3.40;99.90;;;;;;5048551;28;20458;-70
2023/01/29 02:37:38;;;;;;;30.88;21.92;;;3.40;99.90;;;;;;5016747;28;20485;-71
2023/01/29 02:40:16;;;;;;;28.10;21.90;;;3.40;99.90;;;;;;5029435;28;20092;-71
2023/01/29 02:43:15;;;;;;;33.65;23.55;;;3.40;99.90;;;;;;5045878;28;20065;-70
2023/01/29 02:45:49;;;;;;;29.75;22.52;;;3.40;99.90;;;;;;5018600;28;20049;-70
2023/01/29 02:48:21;;;;;;;29.60;22.55;;;3.40;99.90;;;;;;5050518;28;20060;-70
2023/01/29 02:51:00;;;;;;;29.08;22.25;;;3.40;99.90;;;;;;5036593;28;20052;-70
2023/01/29 02:53:31;;;;;;;30.48;23.02;;;3.40;99.90;;;;;;5050891;28;20492;-71
2023/01/29 02:56:14;;;;;;;30.15;23.35;;;3.40;99.90;;;;;;5047333;28;20056;-70
2023/01/29 02:58:48;;;;;;;30.92;22.48;;;3.40;99.90;;;;;;5048381;28;20049;-70
2023/01/29 03:01:30;;;;;;;30.70;23.30;;;3.40;99.90;;;;;;5051148;28;20444;-70
2023/01/29 03:04:02;;;;;;;30.40;23.02;;;3.40;99.90;;;;;;5047460;28;20049;-70
2023/01/29 03:06:36;;;;;;;31.83;22.17;;;3.40;99.90;;;;;;5044511;28;20046;-71
2023/01/29 03:09:08;;;;;;;31.23;22.98;;;3.40;99.90;;;;;;5046809;28;20088;-71
2023/01/29 03:11:39;;;;;;;29.55;22.10;;;3.40;99.90;;;;;;5049614;28;20118;-71
2023/01/29 03:14:13;;;;;;;31.17;23.63;;;3.40;99.90;;;;;;5049589;28;20090;-71
2023/01/29 03:16:50;;;;;;;31.55;23.17;;;3.40;99.90;;;;;;5048700;28;21460;-71
2023/01/29 03:19:26;;;;;;;34.95;24.20;;;3.40;99.90;;;;;;5045679;28;20083;-70
2023/01/29 03:21:59;;;;;;;32.38;23.33;;;3.40;99.90;;;;;;5051399;28;20048;-70
2023/01/29 03:32:54;;;;;;;34.42;24.30;;;3.40;99.90;;;;;;5036741;28;20048;-70
2023/01/29 03:35:34;;;;;;;33.35;24.77;;;3.40;99.90;;;;;;5041933;28;20044;-70
2023/01/29 03:38:01;;;;;;;31.50;24.20;;;3.40;99.90;;;;;;5045851;28;20088;-70
2023/01/29 03:40:33;;;;;;;33.65;24.65;;;3.40;99.90;;;;;;5080754;28;20385;-70
2023/01/29 03:43:07;;;;;;;29.23;22.77;;;3.40;99.90;;;;;;5048009;28;20155;-70
2023/01/29 03:45:54;;;;;;;34.15;24.77;;;3.40;99.90;;;;;;5044265;28;20322;-70
2023/01/29 03:48:27;;;;;;;30.55;23.77;;;3.40;99.90;;;;;;5036969;28;20464;-71
2023/01/29 03:51:16;;;;;;;30.38;24.33;;;3.40;99.90;;;;;;5046833;28;20135;-70
2023/01/29 03:53:53;;;;;;;31.15;23.92;;;3.40;99.90;;;;;;5040680;28;20107;-71
2023/01/29 03:56:43;;;;;;;32.67;25.88;;;3.40;99.90;;;;;;5047709;28;20037;-70
2023/01/29 03:59:27;;;;;;;35.00;24.95;;;3.40;99.90;;;;;;5033907;28;20041;-71
2023/01/29 04:02:00;;;;;;;32.60;26.20;;;3.40;99.90;;;;;;5043430;28;20045;-70
2023/01/29 04:04:37;;;;;;;31.45;24.35;;;3.40;99.90;;;;;;5046728;28;20063;-71
2023/01/29 04:07:22;;;;;;;30.05;24.42;;;3.50;99.90;;;;;;5046011;28;20064;-70
2023/01/29 04:10:06;;;;;;;30.60;24.67;;;3.50;99.90;;;;;;5044110;28;20172;-70
2023/01/29 04:13:04;;;;;;;30.10;23.77;;;3.50;99.90;;;;;;5040576;28;20158;-70
2023/01/29 04:15:35;;;;;;;31.60;24.10;;;3.50;99.90;;;;;;5032903;28;20049;-70
2023/01/29 04:18:02;;;;;;;31.17;24.10;;;3.50;99.90;;;;;;5034547;28;20045;-70
2023/01/29 04:20:28;;;;;;;32.53;24.90;;;3.40;99.90;;;;;;5038295;28;20068;-70
2023/01/29 04:22:54;;;;;;;34.00;24.87;;;3.50;99.90;;;;;;5040385;28;20045;-70
2023/01/29 04:25:27;;;;;;;34.28;24.75;;;3.50;99.90;;;;;;5047727;28;20299;-70
2023/01/29 04:28:19;;;;;;;31.42;24.48;;;3.50;99.90;;;;;;5048593;28;20048;-70
2023/01/29 04:31:01;;;;;;;32.90;24.90;;;3.50;99.90;;;;;;5045657;28;20125;-70
2023/01/29 04:34:00;;;;;;;37.58;25.48;;;3.50;99.90;;;;;;5039676;28;20045;-70
2023/01/29 04:36:48;;;;;;;32.38;25.20;;;3.50;99.90;;;;;;5047249;28;20041;-70
2023/01/29 04:39:23;;;;;;;33.83;24.67;;;3.60;99.90;;;;;;5046581;28;20049;-70
2023/01/29 04:41:55;;;;;;;34.00;24.55;;;3.60;99.90;;;;;;5048933;28;20052;-70
2023/01/29 04:44:53;;;;;;;34.00;25.38;;;3.60;99.90;;;;;;5045607;28;20042;-71
2023/01/29 04:47:33;;;;;;;32.35;24.67;;;3.60;99.90;;;;;;5043495;28;20085;-70
2023/01/29 04:50:05;;;;;;;33.40;23.55;;;3.60;99.90;;;;;;5045091;28;20067;-70
2023/01/29 04:53:01;;;;;;;35.35;24.33;;;3.60;99.90;;;;;;5043907;28;20156;-71
2023/01/29 04:55:50;;;;;;;31.13;24.25;;;3.60;99.90;;;;;;5036120;28;20053;-70
2023/01/29 04:58:21;;;;;;;32.17;24.08;;;3.60;99.90;;;;;;5040446;28;20041;-70
2023/01/29 05:00:52;;;;;;;31.63;23.95;;;3.60;99.90;;;;;;5048060;28;20607;-70
2023/01/29 05:03:20;;;;;;;30.15;22.92;;;3.60;99.90;;;;;;5044844;28;20036;-71
2023/01/29 05:05:48;;;;;;;33.70;25.05;;;3.60;99.90;;;;;;5036115;28;20041;-70
2023/01/29 05:08:17;;;;;;;31.02;25.30;;;3.60;99.90;;;;;;5044786;28;20087;-70
2023/01/29 05:10:46;;;;;;;33.97;25.48;;;3.70;99.90;;;;;;5042581;28;20078;-70
2023/01/29 05:13:14;;;;;;;31.27;24.27;;;3.60;99.90;;;;;;5044965;28;20053;-71
2023/01/29 05:15:46;;;;;;;32.20;24.27;;;3.60;99.90;;;;;;5040237;28;20076;-70
2023/01/29 05:18:12;;;;;;;32.35;25.00;;;3.60;99.90;;;;;;5043281;28;20049;-70
2023/01/29 05:20:40;;;;;;;32.22;25.52;;;3.60;99.90;;;;;;5043431;28;20053;-70
2023/01/29 05:23:17;;;;;;;32.08;25.65;;;3.60;99.90;;;;;;5041495;28;20060;-70
2023/01/29 05:25:43;;;;;;;31.00;23.90;;;3.60;99.90;;;;;;5042437;28;20124;-70
2023/01/29 05:28:17;;;;;;;33.28;25.77;;;3.60;99.90;;;;;;5046369;28;20095;-71
2023/01/29 05:30:51;;;;;;;33.63;26.13;;;3.70;99.90;;;;;;5044031;28;20045;-71
2023/01/29 05:33:28;;;;;;;32.20;25.70;;;3.70;99.90;;;;;;5037483;28;20044;-70
2023/01/29 05:35:55;;;;;;;31.35;25.20;;;3.70;99.90;;;;;;5040780;28;20040;-70
2023/01/29 05:38:21;;;;;;;32.30;26.27;;;3.70;99.90;;;;;;5029223;28;20069;-70
2023/01/29 05:40:47;;;;;;;33.60;26.98;;;3.70;99.90;;;;;;5045122;28;20056;-70
2023/01/29 05:43:21;;;;;;;32.15;26.75;;;3.70;99.90;;;;;;5039010;28;20052;-70
2023/01/29 05:45:57;;;;;;;31.95;26.00;;;3.70;99.90;;;;;;5037816;28;20076;-70
2023/01/29 05:48:24;;;;;;;31.05;25.73;;;3.70;99.90;;;;;;5038102;28;20040;-70
2023/01/29 05:50:50;;;;;;;33.60;26.92;;;3.70;99.90;;;;;;5047199;28;20075;-71
2023/01/29 05:53:16;;;;;;;34.83;27.33;;;3.70;99.90;;;;;;5040516;28;20049;-72
2023/01/29 05:55:46;;;;;;;33.28;26.48;;;3.60;99.90;;;;;;5047371;28;20033;-71
2023/01/29 05:58:12;;;;;;;36.08;25.95;;;3.70;99.90;;;;;;5046527;28;20123;-72
2023/01/29 06:00:38;;;;;;;35.53;27.60;;;3.60;99.90;;;;;;5045586;28;20226;-71
2023/01/29 06:03:04;;;;;;;34.35;26.48;;;3.70;99.90;;;;;;5061097;28;20040;-71
2023/01/29 06:05:30;;;;;;;36.92;27.08;;;3.70;99.90;;;;;;5043778;28;20133;-71
2023/01/29 06:07:55;;;;;;;33.15;25.95;;;3.70;99.90;;;;;;5045697;28;20045;-71
2023/01/29 06:10:21;;;;;;;31.75;26.77;;;3.70;99.90;;;;;;5047521;28;20056;-71
2023/01/29 06:12:47;;;;;;;32.55;27.23;;;3.70;99.90;;;;;;5045474;28;20132;-71
2023/01/29 06:15:14;;;;;;;34.67;27.70;;;3.70;99.90;;;;;;5039714;28;20041;-71
2023/01/29 06:17:40;;;;;;;33.80;27.75;;;3.70;99.90;;;;;;5046827;28;20488;-71
2023/01/29 06:20:07;;;;;;;34.10;27.27;;;3.70;99.90;;;;;;5043160;28;20130;-71
2023/01/29 06:22:32;;;;;;;34.75;27.02;;;3.70;99.90;;;;;;5042248;28;20068;-71
2023/01/29 06:24:58;;;;;;;34.72;26.63;;;3.70;99.90;;;;;;5049656;28;20037;-71
2023/01/29 06:27:24;;;;;;;32.92;27.80;;;3.70;99.90;;;;;;5044660;28;20548;-71
2023/01/29 06:29:50;;;;;;;34.70;28.45;;;3.70;99.90;;;;;;5038488;28;20048;-71
2023/01/29 06:32:15;;;;;;;37.10;28.75;;;3.70;99.90;;;;;;5040469;28;20037;-71
2023/01/29 06:34:41;;;;;;;33.55;28.38;;;3.70;99.90;;;;;;5039323;28;20420;-71
2023/01/29 06:37:07;;;;;;;33.42;28.67;;;3.70;99.90;;;;;;5032166;28;20053;-71
2023/01/29 06:39:33;;;;;;;34.35;27.40;;;3.70;99.90;;;;;;5044779;28;20842;-71
2023/01/29 06:41:58;;;;;;;38.75;29.02;;;3.70;99.90;;;;;;5044048;28;20037;-71
2023/01/29 06:44:24;;;;;;;38.55;29.55;;;3.70;99.90;;;;;;5043645;28;20037;-71
2023/01/29 06:46:50;;;;;;;42.03;32.15;;;3.70;99.90;;;;;;5041217;28;20416;-71
2023/01/29 06:49:15;;;;;;;39.72;32.22;;;3.70;99.90;;;;;;5039141;28;20400;-71
2023/01/29 06:51:41;;;;;;;39.88;30.05;;;3.70;99.90;;;;;;5035261;28;20048;-71
2023/01/29 06:54:09;;;;;;;38.97;30.92;;;3.70;99.90;;;;;;5070554;28;20037;-71
2023/01/29 06:56:34;;;;;;;;;;;3.70;99.90;;;;;;5042189;28;20048;-71
2023/01/29 06:59:00;;;;;;;37.47;28.23;;;3.60;99.90;;;;;;5038659;28;20138;-71
2023/01/29 07:01:26;;;;;;;34.88;26.48;;;3.60;99.90;;;;;;5045858;28;20045;-71
2023/01/29 07:03:52;;;;;;;34.58;27.30;;;3.60;99.90;;;;;;5042284;28;20068;-71
2023/01/29 07:06:18;;;;;;;34.80;26.90;;;3.60;99.90;;;;;;5045345;28;20040;-71
2023/01/29 07:08:44;;;;;;;35.13;27.58;;;3.60;99.90;;;;;;5047588;28;20063;-71
2023/01/29 07:11:10;;;;;;;35.08;28.98;;;3.60;99.90;;;;;;5049539;28;20480;-71
2023/01/29 07:13:35;;;;;;;33.83;28.33;;;3.60;99.90;;;;;;5044928;28;20052;-71
2023/01/29 07:16:02;;;;;;;36.30;28.65;;;3.60;99.90;;;;;;5045783;28;20126;-71
2023/01/29 07:18:28;;;;;;;35.77;27.53;;;3.60;99.90;;;;;;5042558;28;20043;-71
2023/01/29 07:20:55;;;;;;;36.80;28.52;;;3.60;99.90;;;;;;5034856;28;20305;-71
2023/01/29 07:23:21;;;;;;;34.07;28.03;;;3.60;99.90;;;;;;5034240;28;20042;-71
2023/01/29 07:25:48;;;;;;;37.08;28.73;;;3.60;99.90;;;;;;5049717;28;20315;-71
2023/01/29 07:28:19;;;;;;;36.28;27.80;;;3.60;99.90;;;;;;5041913;28;20072;-71
2023/01/29 07:30:45;;;;;;;36.80;28.33;;;3.60;99.90;;;;;;5041395;28;20041;-70
2023/01/29 07:33:11;;;;;;;35.97;29.00;;;3.60;99.90;;;;;;5040659;28;20045;-71
2023/01/29 07:35:38;;;;;;;38.83;30.08;;;3.60;99.90;;;;;;5040852;28;20472;-71
2023/01/29 07:38:05;;;;;;;40.20;28.95;;;3.60;99.90;;;;;;5043789;28;20143;-71
2023/01/29 07:40:31;;;;;;;35.03;28.47;;;3.60;99.90;;;;;;5044460;28;20609;-72
2023/01/29 07:43:01;;;;;;;36.78;28.77;;;3.60;99.90;;;;;;5050444;28;20132;-70
2023/01/29 07:45:28;;;;;;;36.70;28.77;;;3.50;99.90;;;;;;5045647;28;20059;-70
2023/01/29 07:47:55;;;;;;;34.57;28.00;;;3.50;99.90;;;;;;5043464;28;20049;-73
2023/01/29 07:50:24;;;;;;;34.88;28.25;;;3.50;99.90;;;;;;5047265;28;20049;-75
2023/01/29 07:52:50;;;;;;;36.55;28.52;;;3.60;99.90;;;;;;5042535;28;20045;-73
2023/01/29 07:55:16;;;;;;;35.55;28.23;;;3.50;99.90;;;;;;5037819;28;20046;-72
2023/01/29 07:57:43;;;;;;;36.50;28.58;;;3.60;99.90;;;;;;5047413;28;20102;-72
2023/01/29 08:00:10;;;;;;;32.93;27.50;;;3.60;99.90;;;;;;5053184;28;20120;-73
2023/01/29 08:02:36;;;;;;;36.65;29.05;;;3.60;99.90;;;;;;5048529;28;20342;-73
2023/01/29 08:05:02;;;;;;;35.70;27.45;;;3.60;99.90;;;;;;5044753;28;21048;-74
2023/01/29 08:07:28;;;;;;;35.63;28.60;;;3.60;99.90;;;;;;5046455;28;20461;-74
2023/01/29 08:09:54;;;;;;;35.72;28.60;;;3.50;99.90;;;;;;5049164;28;20040;-73
2023/01/29 08:12:19;;;;;;;33.90;27.25;;;3.60;99.90;;;;;;5047994;28;20053;-74
2023/01/29 08:14:45;;;;;;;34.05;28.00;;;3.60;99.90;;;;;;5048640;28;20091;-72
2023/01/29 08:17:12;;;;;;;36.67;28.58;;;3.60;99.90;;;;;;5047398;28;20106;-72
2023/01/29 08:19:37;;;;;;;33.70;27.90;;;3.60;99.90;;;;;;5047679;28;20154;-71
2023/01/29 08:22:04;;;;;;;32.85;27.02;;;3.60;99.90;;;;;;5037043;28;20304;-71
2023/01/29 08:24:30;;;;;;;35.50;27.65;;;3.50;99.90;;;;;;5048599;28;20037;-72
2023/01/29 08:26:56;;;;;;;37.45;28.85;;;3.60;99.90;;;;;;5048028;28;20049;-72
2023/01/29 08:29:21;;;;;;;34.38;28.58;;;3.60;99.90;;;;;;5050734;28;20045;-73
2023/01/29 08:31:47;;;;;;;37.28;28.17;;;3.60;99.90;;;;;;5048058;28;20036;-72
2023/01/29 08:34:13;;;;;;;34.55;27.33;;;3.60;99.90;;;;;;5048256;28;20037;-72
2023/01/29 08:36:39;;;;;;;35.75;27.92;;;3.60;99.90;;;;;;5044317;28;20044;-73
2023/01/29 08:39:04;;;;;;;32.60;27.05;;;3.60;99.90;;;;;;5039978;28;20086;-70
2023/01/29 08:41:30;;;;;;;32.80;27.33;;;3.60;99.90;;;;;;5044158;28;20120;-71
2023/01/29 08:43:56;;;;;;;32.90;28.13;;;3.60;99.90;;;;;;5043425;28;20834;-71
2023/01/29 08:46:22;;;;;;;34.35;27.88;;;3.60;99.90;;;;;;5047823;28;20431;-69
2023/01/29 08:48:48;;;;;;;35.97;28.58;;;3.60;99.90;;;;;;5048571;28;20098;-69
2023/01/29 08:51:14;;;;;;;35.45;27.60;;;3.60;99.90;;;;;;5048163;28;20041;-70
2023/01/29 08:53:40;;;;;;;33.63;27.13;;;3.60;99.90;;;;;;5046673;28;20040;-70
2023/01/29 08:56:06;;;;;;;37.72;27.10;;;3.60;99.90;;;;;;5048271;28;20067;-70
2023/01/29 08:58:32;;;;;;;33.45;27.10;;;3.60;99.90;;;;;;5048142;28;20077;-70
2023/01/29 09:01:11;;;;;;;36.50;28.88;;;3.60;99.90;;;;;;5047851;28;20087;-70
2023/01/29 09:03:42;;;;;;;34.03;27.65;;;3.60;99.90;;;;;;5045118;28;20045;-70
2023/01/29 09:06:10;;;;;;;35.65;27.98;;;3.60;99.90;;;;;;5047853;28;20380;-70
2023/01/29 09:08:37;;;;;;;31.98;26.85;;;3.70;99.90;;;;;;5044474;28;20135;-70
2023/01/29 09:11:03;;;;;;;35.35;28.40;;;3.60;99.90;;;;;;5046952;28;20554;-70
2023/01/29 09:13:29;;;;;;;33.25;27.13;;;3.70;99.90;;;;;;5049518;28;20048;-70
2023/01/29 09:16:00;;;;;;;35.38;28.27;;;3.70;99.90;;;;;;5078643;28;20053;-70
2023/01/29 09:18:26;;;;;;;34.05;27.30;;;3.70;99.90;;;;;;5080730;28;20460;-70
2023/01/29 09:20:52;;;;;;;34.90;27.02;;;3.70;99.90;;;;;;5047499;28;20068;-70
2023/01/29 09:23:18;;;;;;;34.65;27.73;;;3.60;99.90;;;;;;5034905;28;20040;-70
2023/01/29 09:25:44;;;;;;;33.35;26.63;;;3.70;99.90;;;;;;5048077;28;20496;-70
2023/01/29 09:28:12;;;;;;;34.35;29.15;;;3.70;99.90;;;;;;5048154;28;20041;-70
2023/01/29 09:30:38;;;;;;;33.15;27.27;;;3.70;99.90;;;;;;5035906;28;20037;-70
2023/01/29 09:33:05;;;;;;;34.42;27.38;;;3.70;99.90;;;;;;5044617;28;20385;-70
2023/01/29 09:35:31;;;;;;;34.67;27.13;;;3.70;99.90;;;;;;5047909;28;20106;-70
2023/01/29 09:37:57;;;;;;;35.92;28.17;;;3.70;99.90;;;;;;5045938;28;20504;-70
2023/01/29 09:40:36;;;;;;;37.20;28.60;;;3.80;99.90;;;;;;5030458;28;20048;-69
2023/01/29 09:43:08;;;;;;;35.25;27.85;;;3.80;99.90;;;;;;5041881;28;20052;-70
2023/01/29 09:45:35;;;;;;;35.17;28.45;;;3.80;99.90;;;;;;5048945;28;20120;-70
2023/01/29 09:48:02;;;;;;;;;;;3.80;99.90;;;;;;5045689;28;20057;-70
2023/01/29 09:50:34;;;;;;;34.07;28.53;;;3.80;99.90;;;;;;5047373;28;19970;-72
2023/01/29 09:53:05;;;;;;;35.70;28.55;;;3.80;99.90;;;;;;5045174;28;20475;-71
2023/01/29 09:55:36;;;;;;;35.10;28.50;;;3.90;99.90;;;;;;5047278;28;20091;-70
2023/01/29 09:58:10;;;;;;;36.13;28.83;;;3.90;99.90;;;;;;5041134;28;20073;-69
2023/01/29 10:00:42;;;;;;;38.28;28.67;;;4.00;99.90;;;;;;5040522;28;20053;-69
2023/01/29 10:03:20;;;;;;;34.75;28.75;;;3.90;99.90;;;;;;5043195;28;20511;-69
2023/01/29 10:05:48;;;;;;;37.33;29.50;;;4.00;99.90;;;;;;5045269;28;20124;-70
2023/01/29 10:08:35;;;;;;;36.50;29.30;;;4.00;99.90;;;;;;5028050;28;20098;-70
2023/01/29 10:11:42;;;;;;;38.20;29.67;;;4.00;99.90;;;;;;5037174;28;20496;-71
2023/01/29 10:14:18;;;;;;;36.40;29.17;;;4.00;99.90;;;;;;5027798;28;20049;-70
2023/01/29 10:17:02;;;;;;;35.75;28.95;;;4.00;99.90;;;;;;5030423;28;20077;-70
2023/01/29 10:19:45;;;;;;;36.17;30.02;;;4.10;99.90;;;;;;5035953;28;20044;-71
2023/01/29 10:22:31;;;;;;;34.13;29.23;;;4.10;99.90;;;;;;5049523;28;20048;-71
2023/01/29 10:25:02;;;;;;;37.28;30.10;;;4.20;99.90;;;;;;5046173;28;20174;-71
2023/01/29 10:27:33;;;;;;;34.97;28.95;;;4.30;99.90;;;;;;5047081;28;20037;-72
2023/01/29 10:30:02;;;;;;;38.00;30.52;;;4.30;99.90;;;;;;5047906;28;20134;-73
2023/01/29 10:32:29;;;;;;;35.78;29.58;;;4.30;99.90;;;;;;5043406;28;20041;-72
2023/01/29 10:34:57;;;;;;;37.40;31.58;;;4.40;99.90;;;;;;5047013;28;20052;-74
2023/01/29 10:37:41;;;;;;;36.60;30.02;;;4.40;99.90;;;;;;5043261;28;20053;-69
2023/01/29 10:40:26;;;;;;;37.80;29.55;;;4.40;99.90;;;;;;5052713;28;20373;-70
2023/01/29 10:43:08;;;;;;;35.30;29.15;;;4.50;99.90;;;;;;5047219;28;20723;-74
2023/01/29 10:45:59;;;;;;;37.88;27.70;;;4.50;99.90;;;;;;5050875;28;20040;-70
2023/01/29 10:48:39;;;;;;;37.05;29.83;;;4.50;99.90;;;;;;5053038;28;20084;-72
2023/01/29 10:51:48;;;;;;;36.47;29.77;;;4.60;99.90;;;;;;5053113;28;20488;-72
2023/01/29 10:54:40;;;;;;;34.92;28.15;;;4.60;99.90;;;;;;5050873;28;20064;-72
2023/01/29 10:57:26;;;;;;;35.65;29.52;;;4.60;99.90;;;;;;5049922;28;20083;-70
2023/01/29 11:00:11;;;;;;;35.30;29.33;;;4.70;99.90;;;;;;5053593;28;20048;-70
2023/01/29 11:02:47;;;;;;;35.42;28.30;;;4.60;99.90;;;;;;5051936;28;20147;-70
2023/01/29 11:05:40;;;;;;;33.42;28.13;;;4.70;99.90;;;;;;5051791;28;20053;-70
2023/01/29 11:08:15;;;;;;;35.35;29.83;;;4.70;99.90;;;;;;5041485;28;20396;-70
2023/01/29 11:11:00;;;;;;;33.08;28.15;;;4.70;99.90;;;;;;5050721;28;20055;-70
2023/01/29 11:13:31;;;;;;;35.08;29.08;;;4.70;99.90;;;;;;5053321;28;20037;-70
2023/01/29 11:15:57;;;;;;;34.80;28.25;;;4.70;99.90;;;;;;5052754;28;20404;-70
2023/01/29 11:18:22;;;;;;;38.92;27.90;;;4.80;99.90;;;;;;5051205;28;20048;-71
2023/01/29 11:21:01;;;;;;;37.17;29.73;;;4.80;99.90;;;;;;5053290;28;20370;-70
2023/01/29 11:23:32;;;;;;;36.83;29.42;;;4.80;99.90;;;;;;5051931;28;20044;-70
2023/01/29 11:25:59;;;;;;;36.50;28.27;;;4.80;99.90;;;;;;5050900;28;20464;-70
2023/01/29 11:28:41;;;;;;;35.00;29.75;;;4.80;99.90;;;;;;5051700;28;20059;-70
2023/01/29 11:31:25;;;;;;;33.80;27.35;;;4.80;99.90;;;;;;5051519;28;20123;-70
2023/01/29 11:34:15;;;;;;;35.83;30.48;;;4.90;99.90;;;;;;5052917;28;20129;-70
2023/01/29 11:36:41;;;;;;;34.97;28.50;;;4.90;99.90;;;;;;5051629;28;20079;-70
2023/01/29 11:39:21;;;;;;;34.95;28.73;;;4.90;99.90;;;;;;5051133;28;20420;-70
2023/01/29 11:41:48;;;;;;;35.30;29.13;;;5.00;99.90;;;;;;5052351;28;20092;-69
2023/01/29 11:44:28;;;;;;;33.47;28.10;;;4.90;99.90;;;;;;5052329;28;20053;-70
2023/01/29 11:46:55;;;;;;;36.38;29.98;;;5.00;99.90;;;;;;5052796;28;20123;-70
2023/01/29 11:49:23;;;;;;;;;;;4.90;99.90;;;;;;5050248;28;20048;-70
2023/01/29 11:51:54;;;;;;;34.30;29.05;;;5.00;99.90;;;;;;5085099;28;19935;-70
2023/01/29 11:54:26;;;;;;;36.08;29.35;;;5.00;99.90;;;;;;5049276;28;20403;-71
2023/01/29 11:56:52;;;;;;;35.58;27.55;;;5.00;99.90;;;;;;5051892;28;20052;-70
2023/01/29 11:59:36;;;;;;;33.55;28.98;;;4.90;99.90;;;;;;5050877;28;20056;-71
2023/01/29 12:02:22;;;;;;;37.53;29.55;;;5.00;99.90;;;;;;5051977;28;20100;-70
2023/01/29 12:04:49;;;;;;;36.78;29.02;;;4.90;99.90;;;;;;5052026;28;20037;-70
2023/01/29 12:07:16;;;;;;;36.55;29.25;;;4.90;99.90;;;;;;5050749;28;20045;-71
2023/01/29 12:09:52;;;;;;;35.63;28.67;;;4.80;99.90;;;;;;5050568;28;20045;-71
2023/01/29 12:12:36;;;;;;;36.97;29.70;;;4.80;99.90;;;;;;5051050;28;20045;-71
2023/01/29 12:15:04;;;;;;;33.88;28.25;;;4.80;99.90;;;;;;5050647;28;20041;-70
2023/01/29 12:17:35;;;;;;;37.45;30.63;;;4.70;99.90;;;;;;5051153;28;20495;-71
2023/01/29 12:20:13;;;;;;;37.13;29.45;;;4.70;99.90;;;;;;5051764;28;20037;-71
2023/01/29 12:22:51;;;;;;;41.80;30.55;;;4.70;99.90;;;;;;5051793;28;20240;-71
2023/01/29 12:25:35;;;;;;;36.50;29.88;;;4.70;99.90;;;;;;5048257;28;20044;-71
2023/01/29 12:28:28;;;;;;;37.53;29.85;;;4.70;99.90;;;;;;5051847;28;20254;-71
2023/01/29 12:31:04;;;;;;;37.20;29.98;;;4.60;99.90;;;;;;5051553;28;20124;-71
2023/01/29 12:33:38;;;;;;;35.58;30.02;;;4.70;99.90;;;;;;5050667;28;20057;-71
2023/01/29 12:36:16;;;;;;;37.17;29.88;;;4.60;99.90;;;;;;5049704;28;20045;-71
2023/01/29 12:38:43;;;;;;;40.17;31.35;;;4.70;99.90;;;;;;5048140;28;20148;-71
2023/01/29 12:41:27;;;;;;;38.90;29.88;;;4.60;99.90;;;;;;5050238;28;20053;-71
2023/01/29 12:44:03;;;;;;;36.65;30.15;;;4.60;99.90;;;;;;5051521;28;20064;-71
2023/01/29 12:46:39;;;;;;;37.08;29.33;;;4.60;99.90;;;;;;5050624;28;20095;-71
2023/01/29 12:49:13;;;;;;;35.72;28.98;;;4.60;99.90;;;;;;5050896;28;20056;-71
2023/01/29 12:52:12;;;;;;;36.40;28.20;;;4.60;99.90;;;;;;5051186;28;20124;-71
2023/01/29 12:54:47;;;;;;;37.80;30.08;;;4.60;99.90;;;;;;5047672;28;20041;-71
2023/01/29 12:57:37;;;;;;;40.35;30.60;;;4.60;99.90;;;;;;5049613;28;20053;-71
2023/01/29 13:00:17;;;;;;;37.95;30.08;;;4.60;99.90;;;;;;5050143;28;20446;-70
2023/01/29 13:02:47;;;;;;;40.03;31.65;;;4.60;99.90;;;;;;5049565;28;20064;-71
2023/01/29 13:05:19;;;;;;;40.33;30.80;;;4.60;99.90;;;;;;5050808;28;20052;-71
2023/01/29 13:07:51;;;;;;;40.53;32.72;;;4.60;99.90;;;;;;5047976;28;20049;-71
2023/01/29 13:10:34;;;;;;;43.97;33.17;;;4.60;99.90;;;;;;5050713;28;20140;-71
2023/01/29 13:13:14;;;;;;;44.78;33.30;;;4.60;99.90;;;;;;5051159;28;20049;-71
2023/01/29 13:15:43;;;;;;;44.92;34.88;;;4.60;99.90;;;;;;5048824;28;20053;-71
2023/01/29 13:18:29;;;;;;;44.88;34.97;;;4.60;99.90;;;;;;5049540;28;20392;-71
2023/01/29 13:20:55;;;;;;;45.97;34.80;;;4.60;99.90;;;;;;5050187;28;20385;-71
2023/01/29 13:23:27;;;;;;;44.72;34.13;;;4.60;99.90;;;;;;5049947;28;20060;-71
2023/01/29 13:25:53;;;;;;;46.28;36.33;;;4.60;99.90;;;;;;5050022;28;20088;-71
2023/01/29 13:28:22;;;;;;;44.38;34.38;;;4.60;99.90;;;;;;5049317;28;20590;-71